sensor_id;sensor_type;location;lat;lon;timestamp;temperature;humidity
22974;DHT22;11653;50.848;4.584;2022-09-09T00:04:27;15.80;99.90
22974;DHT22;11653;50.848;4.584;2022-09-09T00:07:48;15.80;99.90
22974;DHT22;11653;50.848;4.584;2022-09-09T00:13:18;15.80;99.90
22974;DHT22;11653;50.848;4.584;2022-09-09T00:18:24;15.90;99.90
22974;DHT22;11653;50.848;4.584;2022-09-09T00:21:14;15.90;99.90
22974;DHT22;11653;50.848;4.584;2022-09-09T00:23:53;16.00;99.90
22974;DHT22;11653;50.848;4.584;2022-09-09T00:26:36;16.00;99.90
22974;DHT22;11653;50.848;4.584;2022-09-09T00:29:14;16.00;99.90
22974;DHT22;11653;50.848;4.584;2022-09-09T00:31:44;16.10;99.90
22974;DHT22;11653;50.848;4.584;2022-09-09T00:34:13;16.00;99.90
22974;DHT22;11653;50.848;4.584;2022-09-09T00:36:40;16.00;99.90
22974;DHT22;11653;50.848;4.584;2022-09-09T00:39:13;16.00;99.90
22974;DHT22;11653;50.848;4.584;2022-09-09T00:44:56;16.10;99.90
22974;DHT22;11653;50.848;4.584;2022-09-09T00:47:45;16.20;99.90
22974;DHT22;11653;50.848;4.584;2022-09-09T00:53:23;16.20;99.90
22974;DHT22;11653;50.848;4.584;2022-09-09T00:56:00;16.20;99.90
22974;DHT22;11653;50.848;4.584;2022-09-09T00:58:30;16.30;99.90
22974;DHT22;11653;50.848;4.584;2022-09-09T01:01:09;16.40;99.90
22974;DHT22;11653;50.848;4.584;2022-09-09T01:03:47;16.40;99.90
22974;DHT22;11653;50.848;4.584;2022-09-09T01:06:37;16.40;99.90
22974;DHT22;11653;50.848;4.584;2022-09-09T01:09:24;16.40;99.90
22974;DHT22;11653;50.848;4.584;2022-09-09T01:25:24;16.40;99.90
22974;DHT22;11653;50.848;4.584;2022-09-09T01:27:55;16.50;99.90
22974;DHT22;11653;50.848;4.584;2022-09-09T01:30:22;16.50;99.90
22974;DHT22;11653;50.848;4.584;2022-09-09T01:32:54;16.50;99.90
22974;DHT22;11653;50.848;4.584;2022-09-09T01:35:43;16.50;99.90
22974;DHT22;11653;50.848;4.584;2022-09-09T01:38:12;16.60;99.90
22974;DHT22;11653;50.848;4.584;2022-09-09T01:40:38;16.60;99.90
22974;DHT22;11653;50.848;4.584;2022-09-09T01:43:04;16.60;99.90
22974;DHT22;11653;50.848;4.584;2022-09-09T01:45:32;16.50;99.90
22974;DHT22;11653;50.848;4.584;2022-09-09T01:47:58;16.60;99.90
22974;DHT22;11653;50.848;4.584;2022-09-09T01:50:24;16.60;99.90
22974;DHT22;11653;50.848;4.584;2022-09-09T01:52:56;16.60;99.90
22974;DHT22;11653;50.848;4.584;2022-09-09T01:55:42;16.60;99.90
22974;DHT22;11653;50.848;4.584;2022-09-09T01:58:24;16.60;99.90
22974;DHT22;11653;50.848;4.584;2022-09-09T02:03:51;16.60;99.90
22974;DHT22;11653;50.848;4.584;2022-09-09T02:06:38;16.50;99.90
22974;DHT22;11653;50.848;4.584;2022-09-09T02:09:06;16.50;99.90
22974;DHT22;11653;50.848;4.584;2022-09-09T02:11:33;16.50;99.90
22974;DHT22;11653;50.848;4.584;2022-09-09T02:14:12;16.40;99.90
22974;DHT22;11653;50.848;4.584;2022-09-09T02:16:47;16.40;99.90
22974;DHT22;11653;50.848;4.584;2022-09-09T02:19:40;16.40;99.90
22974;DHT22;11653;50.848;4.584;2022-09-09T02:22:04;16.40;99.90
22974;DHT22;11653;50.848;4.584;2022-09-09T02:24:32;16.30;99.90
22974;DHT22;11653;50.848;4.584;2022-09-09T02:27:01;16.30;99.90
22974;DHT22;11653;50.848;4.584;2022-09-09T02:29:33;16.40;99.90
22974;DHT22;11653;50.848;4.584;2022-09-09T02:32:02;16.40;99.90
22974;DHT22;11653;50.848;4.584;2022-09-09T02:34:32;16.50;99.90
22974;DHT22;11653;50.848;4.584;2022-09-09T02:37:00;16.40;99.90
22974;DHT22;11653;50.848;4.584;2022-09-09T02:39:27;16.30;99.90
22974;DHT22;11653;50.848;4.584;2022-09-09T02:41:52;16.30;99.90
22974;DHT22;11653;50.848;4.584;2022-09-09T02:44:18;16.30;99.90
22974;DHT22;11653;50.848;4.584;2022-09-09T02:52:18;16.30;99.90
22974;DHT22;11653;50.848;4.584;2022-09-09T02:54:50;16.30;99.90
22974;DHT22;11653;50.848;4.584;2022-09-09T02:57:31;16.30;99.90
22974;DHT22;11653;50.848;4.584;2022-09-09T02:59:58;16.30;99.90
22974;DHT22;11653;50.848;4.584;2022-09-09T03:02:24;16.40;99.90
22974;DHT22;11653;50.848;4.584;2022-09-09T03:04:50;16.40;99.90
22974;DHT22;11653;50.848;4.584;2022-09-09T03:07:18;16.40;99.90
22974;DHT22;11653;50.848;4.584;2022-09-09T03:09:44;16.30;99.90
22974;DHT22;11653;50.848;4.584;2022-09-09T03:12:10;16.30;99.90
22974;DHT22;11653;50.848;4.584;2022-09-09T03:14:37;16.30;99.90
22974;DHT22;11653;50.848;4.584;2022-09-09T03:17:04;16.30;99.90
22974;DHT22;11653;50.848;4.584;2022-09-09T03:19:29;16.30;99.90
22974;DHT22;11653;50.848;4.584;2022-09-09T03:21:55;16.30;99.90
22974;DHT22;11653;50.848;4.584;2022-09-09T03:24:21;16.40;99.90
22974;DHT22;11653;50.848;4.584;2022-09-09T03:26:48;16.40;99.90
22974;DHT22;11653;50.848;4.584;2022-09-09T03:29:14;16.40;99.90
22974;DHT22;11653;50.848;4.584;2022-09-09T03:31:40;16.40;99.90
22974;DHT22;11653;50.848;4.584;2022-09-09T03:34:06;16.40;99.90
22974;DHT22;11653;50.848;4.584;2022-09-09T03:36:32;16.30;99.90
22974;DHT22;11653;50.848;4.584;2022-09-09T03:38:58;16.30;99.90
22974;DHT22;11653;50.848;4.584;2022-09-09T03:41:24;16.30;99.90
22974;DHT22;11653;50.848;4.584;2022-09-09T03:43:53;16.40;99.90
22974;DHT22;11653;50.848;4.584;2022-09-09T03:46:21;16.40;99.90
22974;DHT22;11653;50.848;4.584;2022-09-09T03:48:47;16.40;99.90
22974;DHT22;11653;50.848;4.584;2022-09-09T03:51:13;16.20;99.90
22974;DHT22;11653;50.848;4.584;2022-09-09T03:53:39;16.20;99.90
22974;DHT22;11653;50.848;4.584;2022-09-09T03:56:05;16.30;99.90
22974;DHT22;11653;50.848;4.584;2022-09-09T03:58:36;16.20;99.90
22974;DHT22;11653;50.848;4.584;2022-09-09T04:01:10;16.10;99.90
22974;DHT22;11653;50.848;4.584;2022-09-09T04:03:39;16.20;99.90
22974;DHT22;11653;50.848;4.584;2022-09-09T04:06:06;16.10;99.90
22974;DHT22;11653;50.848;4.584;2022-09-09T04:08:33;16.20;99.90
22974;DHT22;11653;50.848;4.584;2022-09-09T04:11:00;16.20;99.90
22974;DHT22;11653;50.848;4.584;2022-09-09T04:13:27;16.20;99.90
22974;DHT22;11653;50.848;4.584;2022-09-09T04:16:00;16.20;99.90
22974;DHT22;11653;50.848;4.584;2022-09-09T04:18:27;16.20;99.90
22974;DHT22;11653;50.848;4.584;2022-09-09T04:20:53;16.20;99.90
22974;DHT22;11653;50.848;4.584;2022-09-09T04:23:20;16.20;99.90
22974;DHT22;11653;50.848;4.584;2022-09-09T04:25:53;16.30;99.90
22974;DHT22;11653;50.848;4.584;2022-09-09T04:28:22;16.40;99.90
22974;DHT22;11653;50.848;4.584;2022-09-09T04:30:48;16.40;99.90
22974;DHT22;11653;50.848;4.584;2022-09-09T04:33:14;16.40;99.90
22974;DHT22;11653;50.848;4.584;2022-09-09T04:35:47;16.40;99.90
22974;DHT22;11653;50.848;4.584;2022-09-09T04:38:14;16.50;99.90
22974;DHT22;11653;50.848;4.584;2022-09-09T04:40:48;16.50;99.90
22974;DHT22;11653;50.848;4.584;2022-09-09T04:43:15;16.50;99.90
22974;DHT22;11653;50.848;4.584;2022-09-09T04:45:42;16.50;99.90
22974;DHT22;11653;50.848;4.584;2022-09-09T04:48:08;16.60;99.90
22974;DHT22;11653;50.848;4.584;2022-09-09T04:50:35;16.50;99.90
22974;DHT22;11653;50.848;4.584;2022-09-09T04:53:02;16.40;99.90
22974;DHT22;11653;50.848;4.584;2022-09-09T04:55:27;16.40;99.90
22974;DHT22;11653;50.848;4.584;2022-09-09T04:57:54;16.40;99.90
22974;DHT22;11653;50.848;4.584;2022-09-09T05:00:19;16.40;99.90
22974;DHT22;11653;50.848;4.584;2022-09-09T05:02:45;16.50;99.90
22974;DHT22;11653;50.848;4.584;2022-09-09T05:05:11;16.50;99.90
22974;DHT22;11653;50.848;4.584;2022-09-09T05:07:37;16.50;99.90
22974;DHT22;11653;50.848;4.584;2022-09-09T05:10:03;16.30;99.90
22974;DHT22;11653;50.848;4.584;2022-09-09T05:12:30;16.30;99.90
22974;DHT22;11653;50.848;4.584;2022-09-09T05:14:56;16.30;99.90
22974;DHT22;11653;50.848;4.584;2022-09-09T05:17:22;16.20;99.90
22974;DHT22;11653;50.848;4.584;2022-09-09T05:19:48;16.30;99.90
22974;DHT22;11653;50.848;4.584;2022-09-09T05:22:21;16.40;99.90
22974;DHT22;11653;50.848;4.584;2022-09-09T05:24:49;16.40;99.90
22974;DHT22;11653;50.848;4.584;2022-09-09T05:27:17;16.50;99.90
22974;DHT22;11653;50.848;4.584;2022-09-09T05:29:45;16.50;99.90
22974;DHT22;11653;50.848;4.584;2022-09-09T05:32:11;16.50;99.90
22974;DHT22;11653;50.848;4.584;2022-09-09T05:34:36;16.60;99.90
22974;DHT22;11653;50.848;4.584;2022-09-09T05:37:05;16.60;99.90
22974;DHT22;11653;50.848;4.584;2022-09-09T05:39:32;16.60;99.90
22974;DHT22;11653;50.848;4.584;2022-09-09T05:41:58;16.60;99.90
22974;DHT22;11653;50.848;4.584;2022-09-09T05:44:23;16.70;99.90
22974;DHT22;11653;50.848;4.584;2022-09-09T05:46:52;16.70;99.90
22974;DHT22;11653;50.848;4.584;2022-09-09T05:49:19;16.80;99.90
22974;DHT22;11653;50.848;4.584;2022-09-09T05:51:45;16.90;99.90
22974;DHT22;11653;50.848;4.584;2022-09-09T05:54:11;17.00;99.90
22974;DHT22;11653;50.848;4.584;2022-09-09T05:56:41;17.10;99.90
22974;DHT22;11653;50.848;4.584;2022-09-09T05:59:06;17.30;99.90
22974;DHT22;11653;50.848;4.584;2022-09-09T06:01:34;17.50;99.90
22974;DHT22;11653;50.848;4.584;2022-09-09T06:04:00;17.70;99.90
22974;DHT22;11653;50.848;4.584;2022-09-09T06:06:31;17.80;99.90
22974;DHT22;11653;50.848;4.584;2022-09-09T06:08:57;17.70;99.90
22974;DHT22;11653;50.848;4.584;2022-09-09T06:11:30;17.70;99.90
22974;DHT22;11653;50.848;4.584;2022-09-09T06:13:56;17.80;99.90
22974;DHT22;11653;50.848;4.584;2022-09-09T06:16:24;17.60;99.90
22974;DHT22;11653;50.848;4.584;2022-09-09T06:18:53;17.60;99.90
22974;DHT22;11653;50.848;4.584;2022-09-09T06:21:34;17.60;99.90
22974;DHT22;11653;50.848;4.584;2022-09-09T06:24:00;17.60;99.90
22974;DHT22;11653;50.848;4.584;2022-09-09T06:26:34;17.70;99.90
22974;DHT22;11653;50.848;4.584;2022-09-09T06:29:01;17.80;99.90
22974;DHT22;11653;50.848;4.584;2022-09-09T06:31:30;17.70;99.90
22974;DHT22;11653;50.848;4.584;2022-09-09T06:33:56;17.70;99.90
22974;DHT22;11653;50.848;4.584;2022-09-09T06:36:24;17.80;99.90
22974;DHT22;11653;50.848;4.584;2022-09-09T06:38:50;17.90;99.90
22974;DHT22;11653;50.848;4.584;2022-09-09T06:41:18;18.20;99.90
22974;DHT22;11653;50.848;4.584;2022-09-09T06:43:44;18.30;99.90
22974;DHT22;11653;50.848;4.584;2022-09-09T06:46:21;18.50;99.90
22974;DHT22;11653;50.848;4.584;2022-09-09T06:48:47;18.60;99.90
22974;DHT22;11653;50.848;4.584;2022-09-09T06:51:20;18.70;99.90
22974;DHT22;11653;50.848;4.584;2022-09-09T06:53:54;18.70;99.90
22974;DHT22;11653;50.848;4.584;2022-09-09T06:56:28;18.50;99.90
22974;DHT22;11653;50.848;4.584;2022-09-09T06:58:56;18.50;99.90
22974;DHT22;11653;50.848;4.584;2022-09-09T07:01:24;18.40;99.90
22974;DHT22;11653;50.848;4.584;2022-09-09T07:03:52;18.20;99.90
22974;DHT22;11653;50.848;4.584;2022-09-09T07:06:25;18.20;99.90
22974;DHT22;11653;50.848;4.584;2022-09-09T07:08:56;18.20;99.90
22974;DHT22;11653;50.848;4.584;2022-09-09T07:11:28;18.20;99.90
22974;DHT22;11653;50.848;4.584;2022-09-09T07:13:54;18.10;99.90
22974;DHT22;11653;50.848;4.584;2022-09-09T07:16:21;18.20;99.90
22974;DHT22;11653;50.848;4.584;2022-09-09T07:18:50;18.20;99.90
22974;DHT22;11653;50.848;4.584;2022-09-09T07:21:17;18.10;99.90
22974;DHT22;11653;50.848;4.584;2022-09-09T07:23:43;18.10;99.90
22974;DHT22;11653;50.848;4.584;2022-09-09T07:26:16;18.10;99.90
22974;DHT22;11653;50.848;4.584;2022-09-09T07:28:42;18.10;99.90
22974;DHT22;11653;50.848;4.584;2022-09-09T07:31:17;18.10;99.90
22974;DHT22;11653;50.848;4.584;2022-09-09T07:33:44;18.20;99.90
22974;DHT22;11653;50.848;4.584;2022-09-09T07:36:15;18.20;99.90
22974;DHT22;11653;50.848;4.584;2022-09-09T07:38:43;18.30;99.90
22974;DHT22;11653;50.848;4.584;2022-09-09T07:41:13;18.40;99.90
22974;DHT22;11653;50.848;4.584;2022-09-09T07:43:40;18.40;99.90
22974;DHT22;11653;50.848;4.584;2022-09-09T07:46:06;18.40;99.90
22974;DHT22;11653;50.848;4.584;2022-09-09T07:48:33;18.50;99.90
22974;DHT22;11653;50.848;4.584;2022-09-09T07:51:14;18.50;99.90
22974;DHT22;11653;50.848;4.584;2022-09-09T07:53:44;18.50;99.90
22974;DHT22;11653;50.848;4.584;2022-09-09T07:56:12;18.50;99.90
22974;DHT22;11653;50.848;4.584;2022-09-09T07:58:38;18.70;99.90
22974;DHT22;11653;50.848;4.584;2022-09-09T08:01:13;18.90;99.90
22974;DHT22;11653;50.848;4.584;2022-09-09T08:03:39;19.10;99.90
22974;DHT22;11653;50.848;4.584;2022-09-09T08:06:06;19.10;99.90
22974;DHT22;11653;50.848;4.584;2022-09-09T08:08:33;19.20;99.90
22974;DHT22;11653;50.848;4.584;2022-09-09T08:11:09;19.40;99.90
22974;DHT22;11653;50.848;4.584;2022-09-09T08:13:36;19.70;99.90
22974;DHT22;11653;50.848;4.584;2022-09-09T08:16:10;19.90;99.90
22974;DHT22;11653;50.848;4.584;2022-09-09T08:18:37;20.10;99.90
22974;DHT22;11653;50.848;4.584;2022-09-09T08:21:14;20.30;99.90
22974;DHT22;11653;50.848;4.584;2022-09-09T08:23:43;20.80;99.90
22974;DHT22;11653;50.848;4.584;2022-09-09T08:26:11;21.10;99.90
22974;DHT22;11653;50.848;4.584;2022-09-09T08:28:38;21.70;99.90
22974;DHT22;11653;50.848;4.584;2022-09-09T08:31:16;22.20;99.90
22974;DHT22;11653;50.848;4.584;2022-09-09T08:33:43;22.00;99.90
22974;DHT22;11653;50.848;4.584;2022-09-09T08:36:13;21.90;99.90
22974;DHT22;11653;50.848;4.584;2022-09-09T08:38:41;21.90;99.90
22974;DHT22;11653;50.848;4.584;2022-09-09T08:41:49;21.40;99.90
22974;DHT22;11653;50.848;4.584;2022-09-09T08:52:30;20.20;99.90
22974;DHT22;11653;50.848;4.584;2022-09-09T08:57:57;19.50;99.90
22974;DHT22;11653;50.848;4.584;2022-09-09T09:00:28;19.30;99.90
22974;DHT22;11653;50.848;4.584;2022-09-09T09:08:46;19.30;99.90
22974;DHT22;11653;50.848;4.584;2022-09-09T09:11:15;19.20;99.90
22974;DHT22;11653;50.848;4.584;2022-09-09T09:13:50;19.10;99.90
22974;DHT22;11653;50.848;4.584;2022-09-09T09:19:13;19.10;99.90
22974;DHT22;11653;50.848;4.584;2022-09-09T09:21:43;19.10;99.90
22974;DHT22;11653;50.848;4.584;2022-09-09T09:24:20;19.20;99.90
22974;DHT22;11653;50.848;4.584;2022-09-09T09:26:49;19.30;99.90
22974;DHT22;11653;50.848;4.584;2022-09-09T09:29:17;19.20;99.90
22974;DHT22;11653;50.848;4.584;2022-09-09T09:31:50;19.20;99.90
22974;DHT22;11653;50.848;4.584;2022-09-09T09:34:17;19.20;99.90
22974;DHT22;11653;50.848;4.584;2022-09-09T09:36:45;19.10;99.90
22974;DHT22;11653;50.848;4.584;2022-09-09T09:39:27;19.00;99.90
22974;DHT22;11653;50.848;4.584;2022-09-09T09:41:53;18.90;99.90
22974;DHT22;11653;50.848;4.584;2022-09-09T09:44:30;18.90;99.90
22974;DHT22;11653;50.848;4.584;2022-09-09T09:47:13;18.90;99.90
22974;DHT22;11653;50.848;4.584;2022-09-09T09:49:50;18.90;99.90
22974;DHT22;11653;50.848;4.584;2022-09-09T09:52:22;18.90;99.90
22974;DHT22;11653;50.848;4.584;2022-09-09T09:54:49;18.90;99.90
22974;DHT22;11653;50.848;4.584;2022-09-09T09:57:16;18.90;99.90
22974;DHT22;11653;50.848;4.584;2022-09-09T09:59:43;18.90;99.90
22974;DHT22;11653;50.848;4.584;2022-09-09T10:02:23;19.10;99.90
22974;DHT22;11653;50.848;4.584;2022-09-09T10:05:15;19.20;99.90
22974;DHT22;11653;50.848;4.584;2022-09-09T10:07:41;19.20;99.90
22974;DHT22;11653;50.848;4.584;2022-09-09T10:10:15;19.20;99.90
22974;DHT22;11653;50.848;4.584;2022-09-09T10:13:11;19.30;99.90
22974;DHT22;11653;50.848;4.584;2022-09-09T10:16:13;19.50;99.90
22974;DHT22;11653;50.848;4.584;2022-09-09T10:35:39;19.80;99.90
22974;DHT22;11653;50.848;4.584;2022-09-09T10:46:12;20.00;99.90
22974;DHT22;11653;50.848;4.584;2022-09-09T10:57:00;20.30;99.90
22974;DHT22;11653;50.848;4.584;2022-09-09T10:59:36;20.60;99.90
22974;DHT22;11653;50.848;4.584;2022-09-09T11:04:42;21.20;99.90
22974;DHT22;11653;50.848;4.584;2022-09-09T11:07:13;21.50;99.90
22974;DHT22;11653;50.848;4.584;2022-09-09T11:09:43;21.60;99.90
22974;DHT22;11653;50.848;4.584;2022-09-09T11:12:18;21.90;99.90
22974;DHT22;11653;50.848;4.584;2022-09-09T11:14:46;21.90;99.90
22974;DHT22;11653;50.848;4.584;2022-09-09T11:17:20;22.10;99.90
22974;DHT22;11653;50.848;4.584;2022-09-09T11:19:47;22.20;99.90
22974;DHT22;11653;50.848;4.584;2022-09-09T11:22:37;22.60;99.90
22974;DHT22;11653;50.848;4.584;2022-09-09T11:28:32;23.40;99.90
22974;DHT22;11653;50.848;4.584;2022-09-09T11:44:41;23.90;99.90
22974;DHT22;11653;50.848;4.584;2022-09-09T11:47:28;23.50;99.90
22974;DHT22;11653;50.848;4.584;2022-09-09T11:52:45;23.20;99.90
22974;DHT22;11653;50.848;4.584;2022-09-09T11:55:34;22.90;99.90
22974;DHT22;11653;50.848;4.584;2022-09-09T11:58:03;22.60;99.90
22974;DHT22;11653;50.848;4.584;2022-09-09T12:00:48;22.40;99.90
22974;DHT22;11653;50.848;4.584;2022-09-09T12:03:35;22.10;99.90
22974;DHT22;11653;50.848;4.584;2022-09-09T12:06:32;22.10;99.90
22974;DHT22;11653;50.848;4.584;2022-09-09T12:09:23;21.90;99.90
22974;DHT22;11653;50.848;4.584;2022-09-09T12:11:51;21.60;99.90
22974;DHT22;11653;50.848;4.584;2022-09-09T12:17:23;21.30;99.90
22974;DHT22;11653;50.848;4.584;2022-09-09T12:20:14;21.30;99.90
22974;DHT22;11653;50.848;4.584;2022-09-09T12:23:35;21.50;99.90
22974;DHT22;11653;50.848;4.584;2022-09-09T12:29:02;22.00;99.90
22974;DHT22;11653;50.848;4.584;2022-09-09T12:31:35;22.20;99.90
22974;DHT22;11653;50.848;4.584;2022-09-09T12:36:49;22.10;99.90
22974;DHT22;11653;50.848;4.584;2022-09-09T12:39:44;22.10;99.90
22974;DHT22;11653;50.848;4.584;2022-09-09T12:42:18;22.20;99.90
22974;DHT22;11653;50.848;4.584;2022-09-09T12:45:02;22.20;99.90
22974;DHT22;11653;50.848;4.584;2022-09-09T12:47:35;22.20;99.90
22974;DHT22;11653;50.848;4.584;2022-09-09T12:50:03;22.30;99.90
22974;DHT22;11653;50.848;4.584;2022-09-09T12:52:32;22.20;99.90
22974;DHT22;11653;50.848;4.584;2022-09-09T12:55:01;22.00;99.90
22974;DHT22;11653;50.848;4.584;2022-09-09T12:57:35;21.90;99.90
22974;DHT22;11653;50.848;4.584;2022-09-09T13:00:15;21.90;99.90
22974;DHT22;11653;50.848;4.584;2022-09-09T13:02:56;22.00;99.90
22974;DHT22;11653;50.848;4.584;2022-09-09T13:05:25;22.10;99.90
22974;DHT22;11653;50.848;4.584;2022-09-09T13:07:51;22.00;99.90
22974;DHT22;11653;50.848;4.584;2022-09-09T13:10:23;21.90;99.90
22974;DHT22;11653;50.848;4.584;2022-09-09T13:12:50;21.80;99.90
22974;DHT22;11653;50.848;4.584;2022-09-09T13:15:23;21.90;99.90
22974;DHT22;11653;50.848;4.584;2022-09-09T13:17:51;21.90;99.90
22974;DHT22;11653;50.848;4.584;2022-09-09T13:20:19;22.00;99.90
22974;DHT22;11653;50.848;4.584;2022-09-09T13:22:47;22.00;99.90
22974;DHT22;11653;50.848;4.584;2022-09-09T13:25:26;22.10;99.90
22974;DHT22;11653;50.848;4.584;2022-09-09T13:28:04;22.20;99.90
22974;DHT22;11653;50.848;4.584;2022-09-09T13:30:35;22.20;99.90
22974;DHT22;11653;50.848;4.584;2022-09-09T13:33:03;22.30;99.90
22974;DHT22;11653;50.848;4.584;2022-09-09T13:35:29;22.50;99.90
22974;DHT22;11653;50.848;4.584;2022-09-09T13:37:55;22.60;99.90
22974;DHT22;11653;50.848;4.584;2022-09-09T13:40:23;22.60;99.90
22974;DHT22;11653;50.848;4.584;2022-09-09T13:42:55;22.60;99.90
22974;DHT22;11653;50.848;4.584;2022-09-09T13:45:24;22.40;99.90
22974;DHT22;11653;50.848;4.584;2022-09-09T13:47:52;22.40;99.90
22974;DHT22;11653;50.848;4.584;2022-09-09T13:50:27;22.30;99.90
22974;DHT22;11653;50.848;4.584;2022-09-09T13:52:55;22.10;99.90
22974;DHT22;11653;50.848;4.584;2022-09-09T13:55:27;22.20;99.90
22974;DHT22;11653;50.848;4.584;2022-09-09T13:58:01;22.30;99.90
22974;DHT22;11653;50.848;4.584;2022-09-09T14:00:30;22.40;99.90
22974;DHT22;11653;50.848;4.584;2022-09-09T14:02:56;22.30;99.90
22974;DHT22;11653;50.848;4.584;2022-09-09T14:05:22;22.00;99.90
22974;DHT22;11653;50.848;4.584;2022-09-09T14:07:48;22.00;99.90
22974;DHT22;11653;50.848;4.584;2022-09-09T14:10:14;22.00;99.90
22974;DHT22;11653;50.848;4.584;2022-09-09T14:12:40;22.10;99.90
22974;DHT22;11653;50.848;4.584;2022-09-09T14:15:09;22.20;99.90
22974;DHT22;11653;50.848;4.584;2022-09-09T14:17:35;22.10;99.90
22974;DHT22;11653;50.848;4.584;2022-09-09T14:20:02;21.80;99.90
22974;DHT22;11653;50.848;4.584;2022-09-09T14:22:31;21.70;99.90
22974;DHT22;11653;50.848;4.584;2022-09-09T14:24:56;21.60;99.90
22974;DHT22;11653;50.848;4.584;2022-09-09T14:27:23;21.60;99.90
22974;DHT22;11653;50.848;4.584;2022-09-09T14:29:48;21.80;99.90
22974;DHT22;11653;50.848;4.584;2022-09-09T14:32:14;21.90;99.90
22974;DHT22;11653;50.848;4.584;2022-09-09T14:34:39;22.10;99.90
22974;DHT22;11653;50.848;4.584;2022-09-09T14:37:06;22.20;99.90
22974;DHT22;11653;50.848;4.584;2022-09-09T14:39:31;22.20;99.90
22974;DHT22;11653;50.848;4.584;2022-09-09T14:41:57;22.10;99.90
22974;DHT22;11653;50.848;4.584;2022-09-09T14:44:23;22.10;99.90
22974;DHT22;11653;50.848;4.584;2022-09-09T14:46:49;22.00;99.90
22974;DHT22;11653;50.848;4.584;2022-09-09T14:49:16;22.00;99.90
22974;DHT22;11653;50.848;4.584;2022-09-09T14:51:42;21.90;99.90
22974;DHT22;11653;50.848;4.584;2022-09-09T14:54:07;21.60;99.90
22974;DHT22;11653;50.848;4.584;2022-09-09T14:56:34;21.50;99.90
22974;DHT22;11653;50.848;4.584;2022-09-09T14:59:03;21.60;99.90
22974;DHT22;11653;50.848;4.584;2022-09-09T15:01:31;21.70;99.90
22974;DHT22;11653;50.848;4.584;2022-09-09T15:04:03;21.90;99.90
22974;DHT22;11653;50.848;4.584;2022-09-09T15:06:32;22.00;99.90
22974;DHT22;11653;50.848;4.584;2022-09-09T15:08:59;22.10;99.90
22974;DHT22;11653;50.848;4.584;2022-09-09T15:11:33;22.40;99.90
22974;DHT22;11653;50.848;4.584;2022-09-09T15:14:06;22.40;99.90
22974;DHT22;11653;50.848;4.584;2022-09-09T15:16:32;22.20;99.90
22974;DHT22;11653;50.848;4.584;2022-09-09T15:18:59;22.10;99.90
22974;DHT22;11653;50.848;4.584;2022-09-09T15:21:31;22.00;99.90
22974;DHT22;11653;50.848;4.584;2022-09-09T15:23:58;22.00;99.90
22974;DHT22;11653;50.848;4.584;2022-09-09T15:26:25;21.90;99.90
22974;DHT22;11653;50.848;4.584;2022-09-09T15:28:51;21.80;99.90
22974;DHT22;11653;50.848;4.584;2022-09-09T15:31:19;21.80;99.90
22974;DHT22;11653;50.848;4.584;2022-09-09T15:33:49;21.80;99.90
22974;DHT22;11653;50.848;4.584;2022-09-09T15:38:46;21.90;99.90
22974;DHT22;11653;50.848;4.584;2022-09-09T15:41:13;22.10;99.90
22974;DHT22;11653;50.848;4.584;2022-09-09T15:43:42;22.10;99.90
22974;DHT22;11653;50.848;4.584;2022-09-09T15:48:43;22.20;99.90
22974;DHT22;11653;50.848;4.584;2022-09-09T15:51:10;22.20;99.90
22974;DHT22;11653;50.848;4.584;2022-09-09T15:53:36;22.20;99.90
22974;DHT22;11653;50.848;4.584;2022-09-09T15:56:05;22.20;99.90
22974;DHT22;11653;50.848;4.584;2022-09-09T15:58:32;22.00;99.90
22974;DHT22;11653;50.848;4.584;2022-09-09T16:01:08;22.00;99.90
22974;DHT22;11653;50.848;4.584;2022-09-09T16:03:35;21.90;99.90
22974;DHT22;11653;50.848;4.584;2022-09-09T16:06:02;21.90;99.90
22974;DHT22;11653;50.848;4.584;2022-09-09T16:08:33;21.80;99.90
22974;DHT22;11653;50.848;4.584;2022-09-09T16:11:10;21.80;99.90
22974;DHT22;11653;50.848;4.584;2022-09-09T16:13:37;21.80;99.90
22974;DHT22;11653;50.848;4.584;2022-09-09T16:16:05;21.80;99.90
22974;DHT22;11653;50.848;4.584;2022-09-09T16:18:42;21.60;99.90
22974;DHT22;11653;50.848;4.584;2022-09-09T16:21:17;21.40;99.90
22974;DHT22;11653;50.848;4.584;2022-09-09T16:23:43;21.40;99.90
22974;DHT22;11653;50.848;4.584;2022-09-09T16:26:14;21.40;99.90
22974;DHT22;11653;50.848;4.584;2022-09-09T16:28:40;21.30;99.90
22974;DHT22;11653;50.848;4.584;2022-09-09T16:31:08;21.20;99.90
22974;DHT22;11653;50.848;4.584;2022-09-09T16:33:36;21.20;99.90
22974;DHT22;11653;50.848;4.584;2022-09-09T16:36:12;21.10;99.90
22974;DHT22;11653;50.848;4.584;2022-09-09T16:38:39;21.10;99.90
22974;DHT22;11653;50.848;4.584;2022-09-09T16:41:06;20.90;99.90
22974;DHT22;11653;50.848;4.584;2022-09-09T16:43:36;20.80;99.90
22974;DHT22;11653;50.848;4.584;2022-09-09T16:46:03;20.60;99.90
22974;DHT22;11653;50.848;4.584;2022-09-09T16:48:33;20.30;99.90
22974;DHT22;11653;50.848;4.584;2022-09-09T16:51:05;20.00;99.90
22974;DHT22;11653;50.848;4.584;2022-09-09T16:53:32;19.70;99.90
22974;DHT22;11653;50.848;4.584;2022-09-09T16:55:58;19.60;99.90
22974;DHT22;11653;50.848;4.584;2022-09-09T16:58:29;19.50;99.90
22974;DHT22;11653;50.848;4.584;2022-09-09T17:00:59;19.50;99.90
22974;DHT22;11653;50.848;4.584;2022-09-09T17:03:25;19.50;99.90
22974;DHT22;11653;50.848;4.584;2022-09-09T17:05:51;19.40;99.90
22974;DHT22;11653;50.848;4.584;2022-09-09T17:08:17;19.40;99.90
22974;DHT22;11653;50.848;4.584;2022-09-09T17:10:43;19.40;99.90
22974;DHT22;11653;50.848;4.584;2022-09-09T17:13:08;19.40;99.90
22974;DHT22;11653;50.848;4.584;2022-09-09T17:15:40;19.50;99.90
22974;DHT22;11653;50.848;4.584;2022-09-09T17:18:10;19.60;99.90
22974;DHT22;11653;50.848;4.584;2022-09-09T17:20:41;19.60;99.90
22974;DHT22;11653;50.848;4.584;2022-09-09T17:23:10;19.80;99.90
22974;DHT22;11653;50.848;4.584;2022-09-09T17:25:37;19.80;99.90
22974;DHT22;11653;50.848;4.584;2022-09-09T17:28:04;19.90;99.90
22974;DHT22;11653;50.848;4.584;2022-09-09T17:30:33;20.00;99.90
22974;DHT22;11653;50.848;4.584;2022-09-09T17:33:00;20.00;99.90
22974;DHT22;11653;50.848;4.584;2022-09-09T17:35:25;20.00;99.90
22974;DHT22;11653;50.848;4.584;2022-09-09T17:37:53;20.00;99.90
22974;DHT22;11653;50.848;4.584;2022-09-09T17:40:20;19.90;99.90
22974;DHT22;11653;50.848;4.584;2022-09-09T17:42:45;19.90;99.90
22974;DHT22;11653;50.848;4.584;2022-09-09T17:45:12;19.60;99.90
22974;DHT22;11653;50.848;4.584;2022-09-09T17:47:39;19.40;99.90
22974;DHT22;11653;50.848;4.584;2022-09-09T17:50:08;19.30;99.90
22974;DHT22;11653;50.848;4.584;2022-09-09T17:52:35;19.10;99.90
22974;DHT22;11653;50.848;4.584;2022-09-09T17:55:03;18.90;99.90
22974;DHT22;11653;50.848;4.584;2022-09-09T17:57:29;18.80;99.90